Ewen, MI (49925)

10:02 AM EDT on September 05, 2015 (GMT -0400)
Ewen MI | | Change Station
CLOSE
Current Station
Personal Weather Station
Location: Ewen, MI
Elevation: 1181 ft
Nearby Weather Stations

Elev 1181 ft 46.52 °N, 89.27 °W | Updated 13 minutes ago

Overcast
Overcast
70.9 °F
Feels Like 70.9 °F
N
3.7
Wind Variable Wind from SW

Today
High -- | Low -- °F
--% Chance of Precip.
Yesterday
High -- | Low -- °F
Precip. -- in
7:22 AM 8:29 PM
Waning Gibbous, 48% visible
Pressure 30.10 in
Visibility 5.0 miles
Clouds Overcast 400 ft
Dew Point 69 °F
Humidity 95%
Rainfall 0.00 in
Snow Depth Not available.
UV 1 out of 12
Pollen 8.90 out of 12
Air Quality Not available.
Flu Activity Not available.
METAR KLNL 051335Z AUTO 20004KT 5SM BR OVC004 20/19 A3010 RMK AO2 T01970185
Pressure 30.10 in
Visibility 5.0 miles
Clouds Overcast 400 ft
Dew Point 69 °F
Humidity 95%
Rainfall 0.00 in
Snow Depth Not available.
UV 1 out of 12
Pollen 8.90 out of 12
Air Quality Not available.
Flu Activity Not available.
METAR KLNL 051335Z AUTO 20004KT 5SM BR OVC004 20/19 A3010 RMK AO2 T01970185

10-Day Weather Forecast

×

Almanac

Astronomy

Sep. 05, 2015 Rise Set
Actual Time
Civil Twilight
Nautical Twilight
Astronomical Twilight
Moon
Length of Visible Light
Length of Day
Tomorrow will be .
, % of the Moon is Illuminated

Today's Extremes

State Highs State Lows

Community

WunderPhotos

Upload Photos

1,852,471 photos uploaded!

WunderBlogs® & News

Nearby

Air Quality

  Air Quality AQ Index Pollutant
Not available.

Snow Depth

Station Depth Elevation

Earthquake Activity

City Distance Mag. Time & Date
Minimum magnitude displayed is 2.5.

Coastal Water Temperatures

Place Temperature

Stations

Nearby Weather Stations

Station Location Temp. Windchill Dew Point Humidity Wind Precip. Elev Updated Type